sensor_id;sensor_type;location;lat;lon;timestamp;P1;durP1;ratioP1;P2;durP2;ratioP2
11970;SDS011;6045;42.682;23.294;2022-07-23T00:00:07;6.07;;;5.43;;
11970;SDS011;6045;42.682;23.294;2022-07-23T00:02:34;8.82;;;6.63;;
11970;SDS011;6045;42.682;23.294;2022-07-23T00:05:02;7.55;;;6.18;;
11970;SDS011;6045;42.682;23.294;2022-07-23T00:07:29;8.05;;;6.03;;
11970;SDS011;6045;42.682;23.294;2022-07-23T00:09:56;7.57;;;6.07;;
11970;SDS011;6045;42.682;23.294;2022-07-23T00:12:22;7.13;;;5.93;;
11970;SDS011;6045;42.682;23.294;2022-07-23T00:14:49;9.05;;;6.38;;
11970;SDS011;6045;42.682;23.294;2022-07-23T00:17:20;9.13;;;5.97;;
11970;SDS011;6045;42.682;23.294;2022-07-23T00:19:47;7.63;;;6.15;;
11970;SDS011;6045;42.682;23.294;2022-07-23T00:22:14;8.88;;;5.65;;
11970;SDS011;6045;42.682;23.294;2022-07-23T00:24:41;6.78;;;6.07;;
11970;SDS011;6045;42.682;23.294;2022-07-23T00:27:07;6.25;;;5.65;;
11970;SDS011;6045;42.682;23.294;2022-07-23T00:29:34;8.88;;;5.72;;
11970;SDS011;6045;42.682;23.294;2022-07-23T00:32:01;7.22;;;5.97;;
11970;SDS011;6045;42.682;23.294;2022-07-23T00:34:29;6.20;;;5.60;;
11970;SDS011;6045;42.682;23.294;2022-07-23T00:36:56;6.95;;;6.22;;
11970;SDS011;6045;42.682;23.294;2022-07-23T00:39:23;8.70;;;6.40;;
11970;SDS011;6045;42.682;23.294;2022-07-23T00:41:49;6.60;;;5.50;;
11970;SDS011;6045;42.682;23.294;2022-07-23T00:44:18;6.60;;;5.95;;
11970;SDS011;6045;42.682;23.294;2022-07-23T00:46:46;7.32;;;6.03;;
11970;SDS011;6045;42.682;23.294;2022-07-23T00:49:14;7.53;;;5.93;;
11970;SDS011;6045;42.682;23.294;2022-07-23T00:51:43;7.82;;;5.60;;
11970;SDS011;6045;42.682;23.294;2022-07-23T00:54:10;8.23;;;5.90;;
11970;SDS011;6045;42.682;23.294;2022-07-23T00:56:37;7.05;;;6.00;;
11970;SDS011;6045;42.682;23.294;2022-07-23T00:59:03;7.93;;;5.60;;
11970;SDS011;6045;42.682;23.294;2022-07-23T01:01:32;8.50;;;5.82;;
11970;SDS011;6045;42.682;23.294;2022-07-23T01:03:58;6.32;;;5.70;;
11970;SDS011;6045;42.682;23.294;2022-07-23T01:06:25;8.30;;;5.72;;
11970;SDS011;6045;42.682;23.294;2022-07-23T01:08:53;10.00;;;5.93;;
11970;SDS011;6045;42.682;23.294;2022-07-23T01:11:22;6.50;;;5.90;;
11970;SDS011;6045;42.682;23.294;2022-07-23T01:13:49;7.95;;;7.00;;
11970;SDS011;6045;42.682;23.294;2022-07-23T01:16:16;8.38;;;6.45;;
11970;SDS011;6045;42.682;23.294;2022-07-23T01:18:43;7.88;;;7.00;;
11970;SDS011;6045;42.682;23.294;2022-07-23T01:21:10;7.32;;;6.43;;
11970;SDS011;6045;42.682;23.294;2022-07-23T01:23:40;9.60;;;7.40;;
11970;SDS011;6045;42.682;23.294;2022-07-23T01:26:07;8.15;;;6.38;;
11970;SDS011;6045;42.682;23.294;2022-07-23T01:28:34;10.60;;;6.43;;
11970;SDS011;6045;42.682;23.294;2022-07-23T01:31:01;7.80;;;6.43;;
11970;SDS011;6045;42.682;23.294;2022-07-23T01:33:27;8.80;;;6.55;;
11970;SDS011;6045;42.682;23.294;2022-07-23T01:35:54;8.23;;;6.55;;
11970;SDS011;6045;42.682;23.294;2022-07-23T01:38:21;8.95;;;6.32;;
11970;SDS011;6045;42.682;23.294;2022-07-23T01:40:49;6.97;;;6.28;;
11970;SDS011;6045;42.682;23.294;2022-07-23T01:43:16;7.32;;;5.68;;
11970;SDS011;6045;42.682;23.294;2022-07-23T01:45:42;6.82;;;6.03;;
11970;SDS011;6045;42.682;23.294;2022-07-23T01:48:09;6.88;;;6.13;;
11970;SDS011;6045;42.682;23.294;2022-07-23T01:50:36;7.93;;;5.90;;
11970;SDS011;6045;42.682;23.294;2022-07-23T01:53:03;7.40;;;6.53;;
11970;SDS011;6045;42.682;23.294;2022-07-23T01:55:29;6.68;;;5.93;;
11970;SDS011;6045;42.682;23.294;2022-07-23T01:57:58;7.00;;;5.68;;
11970;SDS011;6045;42.682;23.294;2022-07-23T02:00:24;8.57;;;6.43;;
11970;SDS011;6045;42.682;23.294;2022-07-23T02:02:51;6.70;;;5.68;;
11970;SDS011;6045;42.682;23.294;2022-07-23T02:05:18;6.03;;;5.43;;
11970;SDS011;6045;42.682;23.294;2022-07-23T02:07:45;7.10;;;6.00;;
11970;SDS011;6045;42.682;23.294;2022-07-23T02:10:11;7.35;;;5.93;;
11970;SDS011;6045;42.682;23.294;2022-07-23T02:12:38;6.30;;;5.65;;
11970;SDS011;6045;42.682;23.294;2022-07-23T02:15:07;6.75;;;6.10;;
11970;SDS011;6045;42.682;23.294;2022-07-23T02:17:34;7.88;;;5.45;;
11970;SDS011;6045;42.682;23.294;2022-07-23T02:20:01;6.43;;;5.70;;
11970;SDS011;6045;42.682;23.294;2022-07-23T02:22:28;7.80;;;5.60;;
11970;SDS011;6045;42.682;23.294;2022-07-23T02:24:54;7.22;;;6.13;;
11970;SDS011;6045;42.682;23.294;2022-07-23T02:27:24;8.75;;;5.85;;
11970;SDS011;6045;42.682;23.294;2022-07-23T02:29:51;7.13;;;5.90;;
11970;SDS011;6045;42.682;23.294;2022-07-23T02:32:19;7.07;;;5.85;;
11970;SDS011;6045;42.682;23.294;2022-07-23T02:34:46;9.23;;;5.85;;
11970;SDS011;6045;42.682;23.294;2022-07-23T02:37:13;8.02;;;6.38;;
11970;SDS011;6045;42.682;23.294;2022-07-23T02:39:40;6.45;;;5.78;;
11970;SDS011;6045;42.682;23.294;2022-07-23T02:42:07;6.50;;;5.90;;
11970;SDS011;6045;42.682;23.294;2022-07-23T02:44:33;7.07;;;5.75;;
11970;SDS011;6045;42.682;23.294;2022-07-23T02:47:03;7.93;;;5.85;;
11970;SDS011;6045;42.682;23.294;2022-07-23T02:49:31;7.65;;;6.43;;
11970;SDS011;6045;42.682;23.294;2022-07-23T02:51:58;7.82;;;5.80;;
11970;SDS011;6045;42.682;23.294;2022-07-23T02:54:25;6.93;;;5.75;;
11970;SDS011;6045;42.682;23.294;2022-07-23T02:56:51;7.40;;;6.35;;
11970;SDS011;6045;42.682;23.294;2022-07-23T02:59:18;6.35;;;5.75;;
11970;SDS011;6045;42.682;23.294;2022-07-23T03:01:45;7.03;;;6.00;;
11970;SDS011;6045;42.682;23.294;2022-07-23T03:04:12;6.95;;;6.15;;
11970;SDS011;6045;42.682;23.294;2022-07-23T03:06:40;6.57;;;5.95;;
11970;SDS011;6045;42.682;23.294;2022-07-23T03:09:07;6.75;;;5.25;;
11970;SDS011;6045;42.682;23.294;2022-07-23T03:11:34;7.13;;;5.70;;
11970;SDS011;6045;42.682;23.294;2022-07-23T03:14:00;8.45;;;5.90;;
11970;SDS011;6045;42.682;23.294;2022-07-23T03:16:27;7.78;;;6.70;;
11970;SDS011;6045;42.682;23.294;2022-07-23T03:18:54;6.60;;;5.68;;
11970;SDS011;6045;42.682;23.294;2022-07-23T03:21:21;7.65;;;5.85;;
11970;SDS011;6045;42.682;23.294;2022-07-23T03:23:49;7.80;;;6.00;;
11970;SDS011;6045;42.682;23.294;2022-07-23T03:26:16;6.88;;;6.00;;
11970;SDS011;6045;42.682;23.294;2022-07-23T03:28:42;7.25;;;6.45;;
11970;SDS011;6045;42.682;23.294;2022-07-23T03:31:09;7.63;;;6.35;;
11970;SDS011;6045;42.682;23.294;2022-07-23T03:33:36;7.13;;;6.43;;
11970;SDS011;6045;42.682;23.294;2022-07-23T03:36:03;6.90;;;6.07;;
11970;SDS011;6045;42.682;23.294;2022-07-23T03:38:29;10.90;;;6.32;;
11970;SDS011;6045;42.682;23.294;2022-07-23T03:40:58;8.60;;;6.47;;
11970;SDS011;6045;42.682;23.294;2022-07-23T03:43:24;9.07;;;6.57;;
11970;SDS011;6045;42.682;23.294;2022-07-23T03:45:51;7.82;;;6.70;;
11970;SDS011;6045;42.682;23.294;2022-07-23T03:48:18;10.18;;;7.00;;
11970;SDS011;6045;42.682;23.294;2022-07-23T03:50:45;8.43;;;7.00;;
11970;SDS011;6045;42.682;23.294;2022-07-23T03:53:11;8.40;;;7.18;;
11970;SDS011;6045;42.682;23.294;2022-07-23T03:55:38;7.60;;;6.68;;
11970;SDS011;6045;42.682;23.294;2022-07-23T03:58:06;8.25;;;7.43;;
11970;SDS011;6045;42.682;23.294;2022-07-23T04:00:34;8.02;;;7.18;;
11970;SDS011;6045;42.682;23.294;2022-07-23T04:03:01;9.98;;;7.25;;
11970;SDS011;6045;42.682;23.294;2022-07-23T04:05:28;7.78;;;6.60;;
11970;SDS011;6045;42.682;23.294;2022-07-23T04:07:55;8.45;;;7.35;;
11970;SDS011;6045;42.682;23.294;2022-07-23T04:10:21;8.23;;;6.90;;
11970;SDS011;6045;42.682;23.294;2022-07-23T04:12:48;7.75;;;6.68;;
11970;SDS011;6045;42.682;23.294;2022-07-23T04:15:16;8.38;;;6.40;;
11970;SDS011;6045;42.682;23.294;2022-07-23T04:17:43;7.57;;;6.65;;
11970;SDS011;6045;42.682;23.294;2022-07-23T04:20:10;8.30;;;6.40;;
11970;SDS011;6045;42.682;23.294;2022-07-23T04:22:37;8.13;;;5.95;;
11970;SDS011;6045;42.682;23.294;2022-07-23T04:25:04;7.95;;;6.53;;
11970;SDS011;6045;42.682;23.294;2022-07-23T04:27:31;7.55;;;6.45;;
11970;SDS011;6045;42.682;23.294;2022-07-23T04:29:58;8.73;;;6.82;;
11970;SDS011;6045;42.682;23.294;2022-07-23T04:32:26;9.18;;;6.50;;
11970;SDS011;6045;42.682;23.294;2022-07-23T04:34:53;7.13;;;6.43;;
11970;SDS011;6045;42.682;23.294;2022-07-23T04:37:20;6.75;;;6.05;;
11970;SDS011;6045;42.682;23.294;2022-07-23T04:39:47;7.00;;;6.30;;
11970;SDS011;6045;42.682;23.294;2022-07-23T04:42:13;6.72;;;5.63;;
11970;SDS011;6045;42.682;23.294;2022-07-23T04:44:40;12.32;;;7.40;;
11970;SDS011;6045;42.682;23.294;2022-07-23T04:47:07;7.85;;;6.28;;
11970;SDS011;6045;42.682;23.294;2022-07-23T04:49:35;8.30;;;5.97;;
11970;SDS011;6045;42.682;23.294;2022-07-23T04:52:03;7.85;;;6.93;;
11970;SDS011;6045;42.682;23.294;2022-07-23T04:54:30;7.25;;;6.55;;
11970;SDS011;6045;42.682;23.294;2022-07-23T04:56:57;9.30;;;6.18;;
11970;SDS011;6045;42.682;23.294;2022-07-23T04:59:24;8.65;;;6.25;;
11970;SDS011;6045;42.682;23.294;2022-07-23T05:01:51;7.00;;;6.32;;
11970;SDS011;6045;42.682;23.294;2022-07-23T05:04:18;7.85;;;6.03;;
11970;SDS011;6045;42.682;23.294;2022-07-23T05:06:46;7.22;;;6.53;;
11970;SDS011;6045;42.682;23.294;2022-07-23T05:09:13;7.13;;;6.22;;
11970;SDS011;6045;42.682;23.294;2022-07-23T05:11:39;8.45;;;6.60;;
11970;SDS011;6045;42.682;23.294;2022-07-23T05:14:06;7.25;;;6.50;;
11970;SDS011;6045;42.682;23.294;2022-07-23T05:16:33;6.95;;;6.25;;
11970;SDS011;6045;42.682;23.294;2022-07-23T05:18:59;6.90;;;6.00;;
11970;SDS011;6045;42.682;23.294;2022-07-23T05:21:26;7.40;;;6.55;;
11970;SDS011;6045;42.682;23.294;2022-07-23T05:23:54;8.02;;;6.70;;
11970;SDS011;6045;42.682;23.294;2022-07-23T05:26:22;17.67;;;7.80;;
11970;SDS011;6045;42.682;23.294;2022-07-23T05:28:49;12.82;;;7.75;;
11970;SDS011;6045;42.682;23.294;2022-07-23T05:31:16;11.70;;;8.45;;
11970;SDS011;6045;42.682;23.294;2022-07-23T05:33:43;18.30;;;10.10;;
11970;SDS011;6045;42.682;23.294;2022-07-23T05:36:10;13.18;;;9.20;;
11970;SDS011;6045;42.682;23.294;2022-07-23T05:38:37;10.60;;;8.30;;
11970;SDS011;6045;42.682;23.294;2022-07-23T05:41:05;12.48;;;7.88;;
11970;SDS011;6045;42.682;23.294;2022-07-23T05:43:35;12.85;;;9.32;;
11970;SDS011;6045;42.682;23.294;2022-07-23T05:46:01;11.80;;;8.77;;
11970;SDS011;6045;42.682;23.294;2022-07-23T05:48:28;11.95;;;7.40;;
11970;SDS011;6045;42.682;23.294;2022-07-23T05:50:55;9.27;;;7.00;;
11970;SDS011;6045;42.682;23.294;2022-07-23T05:53:22;10.07;;;8.00;;
11970;SDS011;6045;42.682;23.294;2022-07-23T05:55:49;10.48;;;7.13;;
11970;SDS011;6045;42.682;23.294;2022-07-23T05:58:17;9.23;;;8.00;;
11970;SDS011;6045;42.682;23.294;2022-07-23T06:00:44;10.18;;;7.65;;
11970;SDS011;6045;42.682;23.294;2022-07-23T06:03:11;11.95;;;9.45;;
11970;SDS011;6045;42.682;23.294;2022-07-23T06:05:37;14.25;;;10.93;;
11970;SDS011;6045;42.682;23.294;2022-07-23T06:08:04;11.48;;;7.97;;
11970;SDS011;6045;42.682;23.294;2022-07-23T06:10:31;8.52;;;6.82;;
11970;SDS011;6045;42.682;23.294;2022-07-23T06:12:58;8.90;;;7.45;;
11970;SDS011;6045;42.682;23.294;2022-07-23T06:15:26;8.35;;;7.25;;
11970;SDS011;6045;42.682;23.294;2022-07-23T06:17:52;9.63;;;7.53;;
11970;SDS011;6045;42.682;23.294;2022-07-23T06:20:19;10.18;;;7.65;;
11970;SDS011;6045;42.682;23.294;2022-07-23T06:22:46;8.35;;;7.35;;
11970;SDS011;6045;42.682;23.294;2022-07-23T06:25:13;8.35;;;7.55;;
11970;SDS011;6045;42.682;23.294;2022-07-23T06:27:41;10.00;;;7.68;;
11970;SDS011;6045;42.682;23.294;2022-07-23T06:30:08;9.30;;;7.38;;
11970;SDS011;6045;42.682;23.294;2022-07-23T06:32:37;8.63;;;7.82;;
11970;SDS011;6045;42.682;23.294;2022-07-23T06:35:04;10.77;;;7.55;;
11970;SDS011;6045;42.682;23.294;2022-07-23T06:37:31;8.73;;;6.85;;
11970;SDS011;6045;42.682;23.294;2022-07-23T06:39:58;7.85;;;7.07;;
11970;SDS011;6045;42.682;23.294;2022-07-23T06:42:25;8.68;;;7.38;;
11970;SDS011;6045;42.682;23.294;2022-07-23T06:44:51;8.60;;;7.68;;
11970;SDS011;6045;42.682;23.294;2022-07-23T06:47:18;9.35;;;7.50;;
11970;SDS011;6045;42.682;23.294;2022-07-23T06:49:46;8.90;;;7.40;;
11970;SDS011;6045;42.682;23.294;2022-07-23T06:52:13;10.05;;;8.55;;
11970;SDS011;6045;42.682;23.294;2022-07-23T06:54:40;8.50;;;7.05;;
11970;SDS011;6045;42.682;23.294;2022-07-23T06:57:07;9.82;;;7.22;;
11970;SDS011;6045;42.682;23.294;2022-07-23T06:59:33;8.88;;;7.10;;
11970;SDS011;6045;42.682;23.294;2022-07-23T07:02:05;10.55;;;7.25;;
11970;SDS011;6045;42.682;23.294;2022-07-23T07:04:32;8.20;;;7.40;;
11970;SDS011;6045;42.682;23.294;2022-07-23T07:07:00;8.63;;;6.97;;
11970;SDS011;6045;42.682;23.294;2022-07-23T07:09:27;9.82;;;7.93;;
11970;SDS011;6045;42.682;23.294;2022-07-23T07:11:54;8.88;;;7.68;;
11970;SDS011;6045;42.682;23.294;2022-07-23T07:14:21;8.48;;;7.40;;
11970;SDS011;6045;42.682;23.294;2022-07-23T07:16:48;7.47;;;6.72;;
11970;SDS011;6045;42.682;23.294;2022-07-23T07:19:15;9.60;;;7.63;;
11970;SDS011;6045;42.682;23.294;2022-07-23T07:21:42;8.50;;;7.65;;
11970;SDS011;6045;42.682;23.294;2022-07-23T07:24:10;7.85;;;6.97;;
11970;SDS011;6045;42.682;23.294;2022-07-23T07:26:36;9.30;;;6.72;;
11970;SDS011;6045;42.682;23.294;2022-07-23T07:29:04;8.45;;;6.50;;
11970;SDS011;6045;42.682;23.294;2022-07-23T07:31:31;8.23;;;6.60;;
11970;SDS011;6045;42.682;23.294;2022-07-23T07:33:58;7.30;;;6.68;;
11970;SDS011;6045;42.682;23.294;2022-07-23T07:36:25;8.95;;;7.28;;
11970;SDS011;6045;42.682;23.294;2022-07-23T07:38:52;8.13;;;6.25;;
11970;SDS011;6045;42.682;23.294;2022-07-23T07:41:20;7.90;;;6.93;;
11970;SDS011;6045;42.682;23.294;2022-07-23T07:43:49;8.05;;;6.80;;
11970;SDS011;6045;42.682;23.294;2022-07-23T07:46:16;7.35;;;6.65;;
11970;SDS011;6045;42.682;23.294;2022-07-23T07:48:43;9.95;;;6.85;;
11970;SDS011;6045;42.682;23.294;2022-07-23T07:51:10;8.25;;;6.57;;
11970;SDS011;6045;42.682;23.294;2022-07-23T07:53:36;8.15;;;7.03;;
11970;SDS011;6045;42.682;23.294;2022-07-23T07:56:05;7.90;;;6.97;;
11970;SDS011;6045;42.682;23.294;2022-07-23T07:58:33;7.35;;;6.68;;
11970;SDS011;6045;42.682;23.294;2022-07-23T08:01:00;7.10;;;6.40;;
11970;SDS011;6045;42.682;23.294;2022-07-23T08:03:27;8.55;;;7.07;;
11970;SDS011;6045;42.682;23.294;2022-07-23T08:05:54;6.53;;;5.93;;
11970;SDS011;6045;42.682;23.294;2022-07-23T08:08:21;7.88;;;6.95;;
11970;SDS011;6045;42.682;23.294;2022-07-23T08:10:48;9.02;;;6.90;;
11970;SDS011;6045;42.682;23.294;2022-07-23T08:13:15;8.52;;;6.68;;
11970;SDS011;6045;42.682;23.294;2022-07-23T08:15:44;8.00;;;7.15;;
11970;SDS011;6045;42.682;23.294;2022-07-23T08:18:11;7.80;;;6.95;;
11970;SDS011;6045;42.682;23.294;2022-07-23T08:20:37;9.07;;;6.65;;
11970;SDS011;6045;42.682;23.294;2022-07-23T08:23:05;10.50;;;7.40;;
11970;SDS011;6045;42.682;23.294;2022-07-23T08:25:33;11.45;;;6.95;;
11970;SDS011;6045;42.682;23.294;2022-07-23T08:28:02;8.18;;;7.32;;
11970;SDS011;6045;42.682;23.294;2022-07-23T08:30:32;10.23;;;9.32;;
11970;SDS011;6045;42.682;23.294;2022-07-23T08:33:01;10.98;;;9.88;;
11970;SDS011;6045;42.682;23.294;2022-07-23T08:35:30;10.35;;;9.45;;
11970;SDS011;6045;42.682;23.294;2022-07-23T08:37:58;8.13;;;7.32;;
11970;SDS011;6045;42.682;23.294;2022-07-23T08:40:27;7.68;;;6.97;;
11970;SDS011;6045;42.682;23.294;2022-07-23T08:42:55;7.88;;;6.95;;
11970;SDS011;6045;42.682;23.294;2022-07-23T08:45:23;8.77;;;7.20;;
11970;SDS011;6045;42.682;23.294;2022-07-23T08:47:51;10.30;;;8.15;;
11970;SDS011;6045;42.682;23.294;2022-07-23T08:50:21;8.40;;;7.57;;
11970;SDS011;6045;42.682;23.294;2022-07-23T08:52:51;8.88;;;7.20;;
11970;SDS011;6045;42.682;23.294;2022-07-23T08:55:20;8.18;;;7.20;;
11970;SDS011;6045;42.682;23.294;2022-07-23T08:57:48;10.73;;;7.40;;
11970;SDS011;6045;42.682;23.294;2022-07-23T09:00:17;8.18;;;6.78;;
11970;SDS011;6045;42.682;23.294;2022-07-23T09:02:45;9.35;;;7.32;;
11970;SDS011;6045;42.682;23.294;2022-07-23T09:05:14;9.63;;;7.63;;
11970;SDS011;6045;42.682;23.294;2022-07-23T09:10:42;7.63;;;6.55;;
11970;SDS011;6045;42.682;23.294;2022-07-23T09:13:21;8.45;;;7.57;;
11970;SDS011;6045;42.682;23.294;2022-07-23T09:15:50;8.32;;;6.60;;
11970;SDS011;6045;42.682;23.294;2022-07-23T09:18:19;7.68;;;6.88;;
11970;SDS011;6045;42.682;23.294;2022-07-23T09:21:04;8.50;;;7.60;;
11970;SDS011;6045;42.682;23.294;2022-07-23T09:23:37;7.60;;;6.80;;
11970;SDS011;6045;42.682;23.294;2022-07-23T09:29:02;8.25;;;6.80;;
11970;SDS011;6045;42.682;23.294;2022-07-23T09:31:35;10.00;;;6.88;;
11970;SDS011;6045;42.682;23.294;2022-07-23T09:34:10;7.90;;;6.65;;
11970;SDS011;6045;42.682;23.294;2022-07-23T09:36:39;7.72;;;6.90;;
11970;SDS011;6045;42.682;23.294;2022-07-23T09:39:08;7.55;;;6.72;;
11970;SDS011;6045;42.682;23.294;2022-07-23T09:41:36;7.38;;;6.70;;
11970;SDS011;6045;42.682;23.294;2022-07-23T09:44:11;7.00;;;6.30;;
11970;SDS011;6045;42.682;23.294;2022-07-23T09:46:41;10.55;;;6.90;;
11970;SDS011;6045;42.682;23.294;2022-07-23T09:49:17;6.57;;;5.93;;
11970;SDS011;6045;42.682;23.294;2022-07-23T09:51:46;7.25;;;6.63;;
11970;SDS011;6045;42.682;23.294;2022-07-23T09:54:26;6.85;;;6.25;;
11970;SDS011;6045;42.682;23.294;2022-07-23T09:57:01;8.63;;;6.32;;
11970;SDS011;6045;42.682;23.294;2022-07-23T09:59:31;7.15;;;6.40;;
11970;SDS011;6045;42.682;23.294;2022-07-23T10:01:59;6.32;;;5.63;;
11970;SDS011;6045;42.682;23.294;2022-07-23T10:04:27;7.30;;;6.03;;
11970;SDS011;6045;42.682;23.294;2022-07-23T10:06:56;8.35;;;6.15;;
11970;SDS011;6045;42.682;23.294;2022-07-23T10:09:26;5.95;;;5.30;;
11970;SDS011;6045;42.682;23.294;2022-07-23T10:11:55;6.50;;;5.88;;
11970;SDS011;6045;42.682;23.294;2022-07-23T10:14:31;7.68;;;5.80;;
11970;SDS011;6045;42.682;23.294;2022-07-23T10:17:00;6.82;;;5.43;;
11970;SDS011;6045;42.682;23.294;2022-07-23T10:19:27;6.68;;;5.55;;
11970;SDS011;6045;42.682;23.294;2022-07-23T10:21:55;6.30;;;5.80;;
11970;SDS011;6045;42.682;23.294;2022-07-23T10:24:35;6.47;;;5.53;;
11970;SDS011;6045;42.682;23.294;2022-07-23T10:27:20;8.15;;;6.07;;
11970;SDS011;6045;42.682;23.294;2022-07-23T10:30:00;5.90;;;5.30;;
11970;SDS011;6045;42.682;23.294;2022-07-23T10:32:35;7.10;;;5.45;;
11970;SDS011;6045;42.682;23.294;2022-07-23T10:35:09;7.60;;;5.60;;
11970;SDS011;6045;42.682;23.294;2022-07-23T10:37:39;7.85;;;6.03;;
11970;SDS011;6045;42.682;23.294;2022-07-23T10:40:13;7.20;;;5.80;;
11970;SDS011;6045;42.682;23.294;2022-07-23T10:42:42;6.40;;;5.30;;
11970;SDS011;6045;42.682;23.294;2022-07-23T10:45:23;7.78;;;5.72;;
11970;SDS011;6045;42.682;23.294;2022-07-23T10:47:54;6.30;;;5.70;;
11970;SDS011;6045;42.682;23.294;2022-07-23T10:50:22;6.93;;;5.82;;
11970;SDS011;6045;42.682;23.294;2022-07-23T10:55:51;7.38;;;4.88;;
11970;SDS011;6045;42.682;23.294;2022-07-23T10:58:23;7.28;;;5.75;;
11970;SDS011;6045;42.682;23.294;2022-07-23T11:01:32;6.80;;;5.43;;
11970;SDS011;6045;42.682;23.294;2022-07-23T11:04:00;6.78;;;5.43;;
11970;SDS011;6045;42.682;23.294;2022-07-23T11:09:27;7.10;;;5.43;;
11970;SDS011;6045;42.682;23.294;2022-07-23T11:15:00;8.93;;;6.75;;
11970;SDS011;6045;42.682;23.294;2022-07-23T11:17:27;5.88;;;5.28;;
11970;SDS011;6045;42.682;23.294;2022-07-23T11:22:47;5.50;;;5.00;;
11970;SDS011;6045;42.682;23.294;2022-07-23T11:25:28;7.70;;;5.47;;
11970;SDS011;6045;42.682;23.294;2022-07-23T11:28:11;8.75;;;5.43;;
11970;SDS011;6045;42.682;23.294;2022-07-23T11:30:43;6.15;;;5.40;;
11970;SDS011;6045;42.682;23.294;2022-07-23T11:33:17;6.22;;;5.28;;
11970;SDS011;6045;42.682;23.294;2022-07-23T11:35:46;8.73;;;4.88;;
11970;SDS011;6045;42.682;23.294;2022-07-23T11:38:15;7.55;;;4.70;;
11970;SDS011;6045;42.682;23.294;2022-07-23T11:40:44;9.48;;;5.03;;
11970;SDS011;6045;42.682;23.294;2022-07-23T11:43:12;8.50;;;4.43;;
11970;SDS011;6045;42.682;23.294;2022-07-23T11:45:40;5.78;;;4.50;;
11970;SDS011;6045;42.682;23.294;2022-07-23T11:48:16;7.68;;;4.80;;
11970;SDS011;6045;42.682;23.294;2022-07-23T11:50:45;6.43;;;4.20;;
11970;SDS011;6045;42.682;23.294;2022-07-23T11:53:12;9.20;;;4.43;;
11970;SDS011;6045;42.682;23.294;2022-07-23T11:55:39;7.00;;;4.38;;
11970;SDS011;6045;42.682;23.294;2022-07-23T11:58:06;9.25;;;4.47;;
11970;SDS011;6045;42.682;23.294;2022-07-23T12:00:33;8.57;;;4.97;;
11970;SDS011;6045;42.682;23.294;2022-07-23T12:03:02;7.05;;;4.55;;
11970;SDS011;6045;42.682;23.294;2022-07-23T12:05:31;11.43;;;4.57;;
11970;SDS011;6045;42.682;23.294;2022-07-23T12:08:00;10.60;;;4.50;;
11970;SDS011;6045;42.682;23.294;2022-07-23T12:10:29;9.60;;;4.20;;
11970;SDS011;6045;42.682;23.294;2022-07-23T12:13:02;7.70;;;4.10;;
11970;SDS011;6045;42.682;23.294;2022-07-23T12:15:31;6.00;;;4.40;;
11970;SDS011;6045;42.682;23.294;2022-07-23T12:18:01;8.93;;;4.55;;
11970;SDS011;6045;42.682;23.294;2022-07-23T12:20:29;8.55;;;4.60;;
11970;SDS011;6045;42.682;23.294;2022-07-23T12:22:58;7.30;;;4.30;;
11970;SDS011;6045;42.682;23.294;2022-07-23T12:25:28;5.22;;;4.43;;
11970;SDS011;6045;42.682;23.294;2022-07-23T12:28:01;9.32;;;4.88;;
11970;SDS011;6045;42.682;23.294;2022-07-23T12:30:31;6.53;;;4.38;;
11970;SDS011;6045;42.682;23.294;2022-07-23T12:33:00;8.30;;;4.38;;
11970;SDS011;6045;42.682;23.294;2022-07-23T12:35:31;6.55;;;3.83;;
11970;SDS011;6045;42.682;23.294;2022-07-23T12:38:02;6.82;;;4.20;;
11970;SDS011;6045;42.682;23.294;2022-07-23T12:40:31;6.85;;;4.22;;
11970;SDS011;6045;42.682;23.294;2022-07-23T12:43:03;7.60;;;4.18;;
11970;SDS011;6045;42.682;23.294;2022-07-23T12:45:42;7.40;;;4.35;;
11970;SDS011;6045;42.682;23.294;2022-07-23T12:48:16;6.03;;;4.00;;
11970;SDS011;6045;42.682;23.294;2022-07-23T12:50:48;6.45;;;4.43;;
11970;SDS011;6045;42.682;23.294;2022-07-23T12:53:18;6.72;;;4.40;;
11970;SDS011;6045;42.682;23.294;2022-07-23T12:55:46;7.40;;;4.25;;
11970;SDS011;6045;42.682;23.294;2022-07-23T12:58:14;5.43;;;4.50;;
11970;SDS011;6045;42.682;23.294;2022-07-23T13:01:00;9.77;;;4.50;;
11970;SDS011;6045;42.682;23.294;2022-07-23T13:03:35;10.00;;;4.55;;
11970;SDS011;6045;42.682;23.294;2022-07-23T13:06:05;7.70;;;4.65;;
11970;SDS011;6045;42.682;23.294;2022-07-23T13:08:34;8.43;;;4.43;;
11970;SDS011;6045;42.682;23.294;2022-07-23T13:11:02;7.18;;;3.85;;
11970;SDS011;6045;42.682;23.294;2022-07-23T13:13:31;8.27;;;3.97;;
11970;SDS011;6045;42.682;23.294;2022-07-23T13:15:59;6.10;;;4.28;;
11970;SDS011;6045;42.682;23.294;2022-07-23T13:18:28;8.02;;;4.55;;
11970;SDS011;6045;42.682;23.294;2022-07-23T13:20:57;7.20;;;3.92;;
11970;SDS011;6045;42.682;23.294;2022-07-23T13:23:24;4.90;;;4.40;;
11970;SDS011;6045;42.682;23.294;2022-07-23T13:25:52;7.32;;;4.50;;
11970;SDS011;6045;42.682;23.294;2022-07-23T13:28:19;7.07;;;4.50;;
11970;SDS011;6045;42.682;23.294;2022-07-23T13:30:48;10.15;;;4.72;;
11970;SDS011;6045;42.682;23.294;2022-07-23T13:33:16;4.78;;;4.28;;
11970;SDS011;6045;42.682;23.294;2022-07-23T13:35:43;6.43;;;4.28;;
11970;SDS011;6045;42.682;23.294;2022-07-23T13:38:11;7.53;;;3.55;;
11970;SDS011;6045;42.682;23.294;2022-07-23T13:40:41;6.47;;;3.92;;
11970;SDS011;6045;42.682;23.294;2022-07-23T13:43:09;6.05;;;4.28;;
11970;SDS011;6045;42.682;23.294;2022-07-23T13:45:37;4.75;;;3.65;;
11970;SDS011;6045;42.682;23.294;2022-07-23T13:48:04;6.68;;;4.35;;
11970;SDS011;6045;42.682;23.294;2022-07-23T13:50:32;7.70;;;4.18;;
11970;SDS011;6045;42.682;23.294;2022-07-23T13:53:00;6.97;;;4.55;;
11970;SDS011;6045;42.682;23.294;2022-07-23T13:55:29;6.53;;;4.10;;
11970;SDS011;6045;42.682;23.294;2022-07-23T13:57:56;7.93;;;4.32;;
11970;SDS011;6045;42.682;23.294;2022-07-23T14:00:23;5.38;;;3.88;;
11970;SDS011;6045;42.682;23.294;2022-07-23T14:02:51;7.15;;;4.13;;
11970;SDS011;6045;42.682;23.294;2022-07-23T14:05:18;6.20;;;4.22;;
11970;SDS011;6045;42.682;23.294;2022-07-23T14:07:46;6.55;;;4.03;;
11970;SDS011;6045;42.682;23.294;2022-07-23T14:10:14;7.78;;;4.38;;
11970;SDS011;6045;42.682;23.294;2022-07-23T14:12:43;7.07;;;4.13;;
11970;SDS011;6045;42.682;23.294;2022-07-23T14:15:10;4.72;;;3.75;;
11970;SDS011;6045;42.682;23.294;2022-07-23T14:17:38;5.82;;;4.05;;
11970;SDS011;6045;42.682;23.294;2022-07-23T14:20:06;8.32;;;4.05;;
11970;SDS011;6045;42.682;23.294;2022-07-23T14:22:34;7.60;;;4.45;;
11970;SDS011;6045;42.682;23.294;2022-07-23T14:25:00;6.38;;;3.88;;
11970;SDS011;6045;42.682;23.294;2022-07-23T14:27:28;5.93;;;4.13;;
11970;SDS011;6045;42.682;23.294;2022-07-23T14:29:56;8.05;;;4.53;;
11970;SDS011;6045;42.682;23.294;2022-07-23T14:32:23;7.60;;;4.75;;
11970;SDS011;6045;42.682;23.294;2022-07-23T14:34:50;8.25;;;4.35;;
11970;SDS011;6045;42.682;23.294;2022-07-23T14:37:17;5.40;;;4.45;;
11970;SDS011;6045;42.682;23.294;2022-07-23T14:39:44;8.27;;;4.80;;
11970;SDS011;6045;42.682;23.294;2022-07-23T14:42:12;6.13;;;4.50;;
11970;SDS011;6045;42.682;23.294;2022-07-23T14:44:39;6.35;;;5.68;;
11970;SDS011;6045;42.682;23.294;2022-07-23T14:47:08;5.03;;;3.90;;
11970;SDS011;6045;42.682;23.294;2022-07-23T14:49:35;7.50;;;5.10;;
11970;SDS011;6045;42.682;23.294;2022-07-23T14:52:02;9.20;;;4.90;;
11970;SDS011;6045;42.682;23.294;2022-07-23T14:54:30;7.97;;;4.20;;
11970;SDS011;6045;42.682;23.294;2022-07-23T14:56:57;8.75;;;4.55;;
11970;SDS011;6045;42.682;23.294;2022-07-23T14:59:28;5.70;;;4.50;;
11970;SDS011;6045;42.682;23.294;2022-07-23T15:01:56;6.25;;;4.53;;
11970;SDS011;6045;42.682;23.294;2022-07-23T15:04:25;7.85;;;4.55;;
11970;SDS011;6045;42.682;23.294;2022-07-23T15:06:52;7.28;;;4.30;;
11970;SDS011;6045;42.682;23.294;2022-07-23T15:09:22;9.25;;;4.53;;